Time;durP1;ratioP1;P1;durP2;ratioP2;P2;SDS_P1;SDS_P2;PMS_P1;PMS_P2;Temp;Humidity;BMP_temperature;BMP_pressure;BME280_temperature;BME280_humidity;BME280_pressure;Samples;Min_cycle;Max_cycle;Signal;HPM_P1;HPM_P2
2022/10/10 00:01:24;;;;;;;4.40;2.83;;;;;;;24.04;22.51;99157.97;5113012;28;20032;-79
2022/10/10 00:03:50;;;;;;;5.53;3.58;;;;;;;23.47;23.63;99162.19;5112899;28;20068;-79
2022/10/10 00:06:16;;;;;;;6.15;3.30;;;;;;;23.52;23.29;99148.56;5108506;28;20031;-79
2022/10/10 00:08:43;;;;;;;3.83;2.88;;;;;;;23.70;22.98;99154.91;5112033;27;20419;-79
2022/10/10 00:11:11;;;;;;;6.13;3.70;;;;;;;23.87;22.71;99144.84;5101034;27;20028;-79
2022/10/10 00:13:38;;;;;;;3.78;2.95;;;;;;;23.77;22.93;99143.66;5108194;28;20411;-79
2022/10/10 00:16:04;;;;;;;6.40;3.55;;;;;;;24.34;22.18;99135.78;5112246;27;20110;-79
2022/10/10 00:18:31;;;;;;;5.90;3.65;;;;;;;24.63;21.83;99133.56;5103857;28;20080;-79
2022/10/10 00:20:57;;;;;;;3.72;2.47;;;;;;;24.80;21.64;99129.88;5112949;28;20043;-79
2022/10/10 00:23:23;;;;;;;5.13;3.08;;;;;;;25.03;21.48;99130.06;5107778;28;20119;-79
2022/10/10 00:25:50;;;;;;;4.63;2.88;;;;;;;25.17;20.94;99127.13;5112221;28;20042;-79
2022/10/10 00:28:17;;;;;;;4.25;3.05;;;;;;;25.37;20.26;99133.75;5113373;27;20116;-79
2022/10/10 00:30:44;;;;;;;5.72;3.28;;;;;;;25.30;20.28;99131.00;5106564;28;20086;-79
2022/10/10 00:33:10;;;;;;;4.75;3.35;;;;;;;25.36;20.42;99134.16;5110446;28;20047;-79
2022/10/10 00:35:36;;;;;;;7.03;3.35;;;;;;;24.99;21.13;99118.06;5098416;28;20472;-79
2022/10/10 00:38:03;;;;;;;6.63;3.80;;;;;;;23.93;22.21;99120.75;5105801;28;20027;-79
2022/10/10 00:40:29;;;;;;;6.57;3.47;;;;;;;24.07;22.18;99122.72;5110182;28;20483;-79
2022/10/10 00:42:55;;;;;;;8.05;3.38;;;;;;;24.61;20.99;99122.78;5102265;28;21126;-79
2022/10/10 00:45:30;;;;;;;6.20;3.67;;;;;;;24.31;21.60;99119.78;5105017;28;20043;-79
2022/10/10 00:48:05;;;;;;;4.95;2.97;;;;;;;24.19;21.77;99113.81;5105357;28;20040;-79
2022/10/10 00:50:36;;;;;;;4.88;3.00;;;;;;;24.62;20.98;99106.72;5101349;28;20476;-79
2022/10/10 00:53:05;;;;;;;5.82;2.53;;;;;;;24.85;20.67;99112.59;5103565;28;20043;-79
2022/10/10 00:55:32;;;;;;;3.50;2.25;;;;;;;24.14;21.74;99106.63;5110281;28;20036;-79
2022/10/10 00:57:58;;;;;;;4.20;3.03;;;;;;;23.40;22.65;99108.94;5104415;28;20028;-79
2022/10/10 01:00:24;;;;;;;4.57;3.08;;;;;;;22.98;23.20;99118.19;5107534;28;20495;-79
2022/10/10 01:02:50;;;;;;;3.58;3.15;;;;;;;21.96;24.34;99110.50;5105507;28;20510;-79
2022/10/10 01:05:16;;;;;;;5.65;3.15;;;;;;;21.96;24.73;99108.47;5101529;28;20471;-79
2022/10/10 01:07:44;;;;;;;3.92;2.38;;;;;;;22.18;24.40;99105.72;5107323;28;20395;-79
2022/10/10 01:10:16;;;;;;;6.43;2.92;;;;;;;22.34;24.40;99106.16;5102591;28;20046;-79
2022/10/10 01:13:12;;;;;;;4.60;2.78;;;;;;;23.05;23.20;99113.41;5106569;28;20023;-79
2022/10/10 01:15:57;;;;;;;3.40;2.90;;;;;;;23.29;22.89;99129.34;5106826;28;20051;-79
2022/10/10 01:18:47;;;;;;;6.80;2.85;;;;;;;23.97;21.74;99115.91;5110880;28;20035;-79
2022/10/10 01:21:35;;;;;;;4.88;2.92;;;;;;;22.82;22.85;99115.81;5106537;28;20376;-79
2022/10/10 01:24:22;;;;;;;4.45;3.03;;;;;;;21.27;25.15;99110.53;5110732;28;20055;-79
2022/10/10 01:27:25;;;;;;;4.38;3.30;;;;;;;20.46;26.56;99103.53;5104686;28;20038;-79
2022/10/10 01:29:55;;;;;;;6.43;3.22;;;;;;;21.14;25.86;99095.28;5105945;28;20076;-79
2022/10/10 01:32:43;;;;;;;5.75;3.50;;;;;;;22.39;24.33;99091.78;5109362;27;20415;-79
2022/10/10 01:35:47;;;;;;;7.28;3.45;;;;;;;22.91;23.46;99101.41;5105266;27;20067;-79
2022/10/10 01:38:37;;;;;;;8.25;3.35;;;;;;;23.23;22.82;99094.53;5108869;27;20451;-79
2022/10/10 01:41:13;;;;;;;5.93;3.13;;;;;;;23.20;22.93;99086.94;5102213;28;20166;-78
2022/10/10 01:43:40;;;;;;;6.57;3.22;;;;;;;22.74;23.24;99089.00;5109130;28;20040;-79
2022/10/10 01:46:14;;;;;;;3.83;2.88;;;;;;;22.48;23.58;99089.38;5107810;28;20055;-79
2022/10/10 01:48:43;;;;;;;7.28;2.95;;;;;;;22.82;23.21;99087.81;5112381;28;20063;-79
2022/10/10 01:51:33;;;;;;;5.35;2.97;;;;;;;23.43;22.49;99075.31;5107212;27;20032;-79
2022/10/10 01:54:26;;;;;;;7.82;3.22;;;;;;;23.65;22.07;99074.00;5107088;28;20031;-79
2022/10/10 01:57:21;;;;;;;4.65;2.78;;;;;;;23.89;22.14;99070.28;5110533;28;20047;-79
2022/10/10 02:00:02;;;;;;;7.55;3.08;;;;;;;23.55;22.22;99068.47;5107908;27;20070;-79
2022/10/10 02:03:03;;;;;;;4.78;2.70;;;;;;;23.79;21.75;99056.31;5112379;28;20110;-79
2022/10/10 02:05:53;;;;;;;3.33;2.35;;;;;;;24.29;21.14;99056.84;5108475;28;20035;-79
2022/10/10 02:08:32;;;;;;;6.70;2.83;;;;;;;24.70;20.35;99061.31;5101079;28;20505;-79
2022/10/10 02:11:02;;;;;;;3.33;2.22;;;;;;;24.87;20.46;99053.97;5111222;28;20090;-79
2022/10/10 02:13:34;;;;;;;4.17;2.63;;;;;;;24.23;21.46;99056.47;5115086;28;20364;-79
2022/10/10 02:16:05;;;;;;;4.75;3.35;;;;;;;23.03;22.80;99056.97;5112971;28;20637;-79
2022/10/10 02:18:34;;;;;;;3.95;2.30;;;;;;;23.12;22.88;99053.75;5115483;28;20080;-79
2022/10/10 02:21:03;;;;;;;4.85;2.53;;;;;;;23.66;21.94;99056.00;5112412;27;20024;-79
2022/10/10 02:23:30;;;;;;;6.18;2.92;;;;;;;23.53;22.33;99054.84;5115150;27;20035;-79
2022/10/10 02:25:57;;;;;;;6.75;2.60;;;;;;;23.61;21.80;99052.81;5116791;28;20544;-79
2022/10/10 02:28:43;;;;;;;3.63;2.42;;;;;;;23.95;21.15;99054.63;5115046;28;20034;-79
2022/10/10 02:31:18;;;;;;;4.95;2.63;;;;;;;23.62;22.00;99052.38;5110675;28;20323;-79
2022/10/10 02:33:50;;;;;;;3.38;2.78;;;;;;;21.80;24.32;99054.06;5104543;28;20251;-79
2022/10/10 02:36:18;;;;;;;4.68;2.25;;;;;;;20.96;25.58;99057.25;5112983;27;20032;-79
2022/10/10 02:38:46;;;;;;;3.70;2.65;;;;;;;20.99;25.72;99054.50;5111887;28;20387;-79
2022/10/10 02:41:17;;;;;;;4.30;2.83;;;;;;;21.96;24.37;99046.94;5112539;28;20023;-79
2022/10/10 02:43:43;;;;;;;5.80;2.50;;;;;;;22.39;23.88;99044.19;5112012;28;20024;-79
2022/10/10 02:46:13;;;;;;;2.92;2.17;;;;;;;22.34;23.83;99050.19;5105079;28;20490;-79
2022/10/10 02:48:39;;;;;;;4.30;2.95;;;;;;;22.60;23.32;99047.84;5104425;28;20063;-79
2022/10/10 02:51:06;;;;;;;5.68;3.03;;;;;;;21.56;24.63;99044.44;5097328;28;20039;-79
2022/10/10 02:53:35;;;;;;;3.17;2.50;;;;;;;20.96;25.29;99035.72;5115126;28;20500;-79
2022/10/10 02:56:01;;;;;;;7.28;2.30;;;;;;;22.59;22.94;99037.78;5107961;28;20032;-79
2022/10/10 02:58:27;;;;;;;3.72;2.38;;;;;;;23.35;21.88;99035.28;5112267;28;20035;-79
2022/10/10 03:00:53;;;;;;;4.00;2.58;;;;;;;22.59;23.11;99039.81;5107209;28;20031;-79
2022/10/10 03:03:19;;;;;;;3.08;2.15;;;;;;;23.23;22.39;99018.09;5115467;28;20040;-79
2022/10/10 03:05:45;;;;;;;2.72;2.28;;;;;;;23.61;21.64;99022.78;5108244;28;20395;-79
2022/10/10 03:08:12;;;;;;;4.05;2.13;;;;;;;23.34;21.60;99016.03;5106596;28;20476;-79
2022/10/10 03:10:38;;;;;;;2.88;2.08;;;;;;;23.59;21.22;99018.78;5104244;28;20024;-79
2022/10/10 03:13:04;;;;;;;3.92;2.03;;;;;;;23.61;21.29;99017.16;5107080;28;20037;-79
2022/10/10 03:15:30;;;;;;;3.13;2.00;;;;;;;24.05;20.89;99011.69;5112531;28;20032;-79
2022/10/10 03:17:56;;;;;;;5.78;2.15;;;;;;;22.77;22.40;99011.81;5103004;27;20032;-79
2022/10/10 03:20:22;;;;;;;4.05;2.15;;;;;;;21.97;23.82;99017.00;5107720;28;20038;-79
2022/10/10 03:22:48;;;;;;;4.35;2.33;;;;;;;22.01;23.86;99015.81;5109164;28;20114;-79
2022/10/10 03:25:14;;;;;;;3.22;1.75;;;;;;;22.47;23.31;99015.03;5111597;28;20055;-79
2022/10/10 03:27:40;;;;;;;3.05;2.30;;;;;;;22.75;22.91;99014.22;5124307;27;20442;-79
2022/10/10 03:30:07;;;;;;;3.53;1.83;;;;;;;22.82;23.12;99005.81;5114338;27;20059;-79
2022/10/10 03:32:33;;;;;;;5.28;2.75;;;;;;;22.95;22.50;98998.56;5114273;28;20059;-79
2022/10/10 03:34:59;;;;;;;3.92;2.20;;;;;;;23.49;21.50;99000.81;5112756;28;20027;-79
2022/10/10 03:37:25;;;;;;;3.63;2.15;;;;;;;23.68;21.68;98997.50;5113493;28;20046;-79
2022/10/10 03:39:51;;;;;;;2.65;2.20;;;;;;;23.46;21.69;98993.19;5106700;28;20028;-79
2022/10/10 03:42:17;;;;;;;2.95;1.70;;;;;;;22.81;22.85;98988.22;5112212;28;20032;-79
2022/10/10 03:44:43;;;;;;;3.60;2.20;;;;;;;22.61;23.05;98989.84;5111016;27;20448;-79
2022/10/10 03:47:09;;;;;;;4.15;2.42;;;;;;;22.97;22.34;98988.56;5106705;27;20469;-79
2022/10/10 03:49:35;;;;;;;4.90;2.45;;;;;;;22.57;23.03;98989.00;5109494;27;20028;-79
2022/10/10 03:52:02;;;;;;;2.20;2.00;;;;;;;22.61;22.64;98992.66;5109511;28;20043;-79
2022/10/10 03:54:28;;;;;;;3.35;2.35;;;;;;;22.47;23.08;98989.84;5109650;28;20383;-79
2022/10/10 03:56:54;;;;;;;6.32;2.20;;;;;;;22.80;22.77;98983.78;5111517;28;20075;-79
2022/10/10 03:59:20;;;;;;;3.92;1.98;;;;;;;23.42;21.95;98981.22;5111313;28;20046;-79
2022/10/10 04:01:46;;;;;;;3.13;2.00;;;;;;;22.81;22.57;98974.22;5102833;27;20048;-79
2022/10/10 04:04:12;;;;;;;3.03;2.17;;;;;;;23.35;21.80;98973.66;5101949;28;20028;-79
2022/10/10 04:06:38;;;;;;;2.50;1.77;;;;;;;23.93;20.78;98980.50;5109296;27;20103;-79
2022/10/10 04:09:04;;;;;;;2.40;1.60;;;;;;;24.38;20.65;98970.97;5109760;28;20475;-79
2022/10/10 04:11:30;;;;;;;3.08;1.70;;;;;;;24.65;20.02;98976.69;5101733;27;20043;-79
2022/10/10 04:13:56;;;;;;;2.25;1.48;;;;;;;24.89;19.69;98974.88;5105912;28;20050;-79
2022/10/10 04:16:22;;;;;;;1.70;1.60;;;;;;;24.90;19.49;98985.69;5098672;27;20063;-79
2022/10/10 04:18:48;;;;;;;1.98;1.40;;;;;;;24.93;19.64;98984.06;5107424;28;20504;-79
2022/10/10 04:21:14;;;;;;;2.70;1.83;;;;;;;24.63;19.98;98981.94;5104687;28;20507;-79
2022/10/10 04:23:40;;;;;;;2.58;1.77;;;;;;;21.98;23.25;98993.44;5105930;28;20631;-79
2022/10/10 04:26:07;;;;;;;3.47;2.10;;;;;;;19.74;26.91;98994.47;5107742;28;20102;-78
2022/10/10 04:28:33;;;;;;;2.35;1.90;;;;;;;19.63;27.32;98999.13;5101760;28;20039;-79
2022/10/10 04:30:59;;;;;;;2.90;2.15;;;;;;;19.47;27.36;98987.41;5100761;28;20032;-79
2022/10/10 04:33:25;;;;;;;4.30;1.58;;;;;;;20.28;26.42;98986.22;5104327;28;20108;-79
2022/10/10 04:35:51;;;;;;;5.20;3.10;;;;;;;20.07;26.56;98986.00;5104170;28;20043;-79
2022/10/10 04:38:20;;;;;;;4.55;3.17;;;;;;;20.88;25.20;98983.84;5106320;27;20059;-80
2022/10/10 04:40:48;;;;;;;2.92;2.25;;;;;;;21.28;24.79;98980.06;5105171;28;20821;-80
2022/10/10 04:43:14;;;;;;;4.53;2.08;;;;;;;22.33;23.35;98979.47;5101923;27;20088;-79
2022/10/10 04:45:40;;;;;;;2.92;1.52;;;;;;;22.57;23.27;98977.81;5109857;27;20039;-78
2022/10/10 04:48:06;;;;;;;3.75;1.92;;;;;;;23.01;21.92;98969.72;5110882;28;20028;-79
2022/10/10 04:50:33;;;;;;;5.13;2.00;;;;;;;23.47;21.21;98968.78;5112828;28;20031;-78
2022/10/10 04:52:59;;;;;;;3.85;1.85;;;;;;;23.92;20.43;98973.31;5113915;28;20038;-79
2022/10/10 04:55:25;;;;;;;4.20;1.80;;;;;;;23.95;20.18;98966.84;5104044;28;20036;-79
2022/10/10 04:57:51;;;;;;;1.80;1.65;;;;;;;24.08;20.26;98973.63;5093347;28;20042;-79
2022/10/10 05:00:17;;;;;;;2.78;1.92;;;;;;;24.18;19.86;98974.75;5112417;28;20024;-79
2022/10/10 05:02:43;;;;;;;3.33;1.60;;;;;;;24.46;19.81;98968.84;5113697;28;20487;-79
2022/10/10 05:05:09;;;;;;;1.52;1.40;;;;;;;24.62;19.57;98963.50;5113919;28;20336;-79
2022/10/10 05:07:35;;;;;;;2.75;1.73;;;;;;;24.47;19.83;98968.47;5121824;27;20089;-79
2022/10/10 05:10:02;;;;;;;4.72;2.25;;;;;;;24.32;20.04;98961.38;5113755;28;20458;-79
2022/10/10 05:12:28;;;;;;;2.45;1.63;;;;;;;24.27;20.03;98964.63;5102690;28;20051;-79
2022/10/10 05:14:54;;;;;;;2.40;1.80;;;;;;;24.09;20.27;98963.16;5093493;28;20032;-79
2022/10/10 05:17:20;;;;;;;1.67;1.33;;;;;;;24.02;20.36;98959.19;5113397;28;20040;-79
2022/10/10 05:19:46;;;;;;;2.35;1.55;;;;;;;24.10;20.19;98957.16;5112481;28;20036;-79
2022/10/10 05:22:12;;;;;;;2.60;1.67;;;;;;;24.07;20.64;98957.97;5112408;28;20034;-79
2022/10/10 05:24:39;;;;;;;4.47;1.35;;;;;;;24.31;20.25;98962.59;5112152;28;20028;-79
2022/10/10 05:27:05;;;;;;;2.83;1.48;;;;;;;24.55;20.04;98964.34;5112706;28;20024;-79
2022/10/10 05:29:31;;;;;;;2.22;1.55;;;;;;;24.75;20.39;98961.75;5093881;28;20051;-79
2022/10/10 05:31:57;;;;;;;2.38;1.40;;;;;;;24.88;19.99;98962.84;5108224;28;20130;-79
2022/10/10 05:34:23;;;;;;;2.83;1.73;;;;;;;25.01;20.03;98963.91;5112911;28;20038;-79
2022/10/10 05:36:49;;;;;;;1.45;1.35;;;;;;;25.34;19.74;98965.88;5108813;28;20032;-78
2022/10/10 05:39:15;;;;;;;2.08;1.50;;;;;;;25.42;19.80;98956.16;5095024;28;20034;-78
2022/10/10 05:41:42;;;;;;;1.75;1.30;;;;;;;25.56;19.90;98968.44;5113738;28;20082;-79
2022/10/10 05:44:08;;;;;;;1.30;1.17;;;;;;;25.65;19.89;98971.56;5113496;28;20487;-79
2022/10/10 05:46:34;;;;;;;3.63;1.33;;;;;;;25.51;20.14;98968.94;5102141;28;20127;-79
2022/10/10 05:49:01;;;;;;;4.03;1.45;;;;;;;25.55;20.11;98976.09;5098560;28;20403;-79
2022/10/10 05:51:27;;;;;;;2.15;1.55;;;;;;;25.72;19.98;98979.88;5112886;28;20540;-79
2022/10/10 05:53:53;;;;;;;3.67;1.35;;;;;;;25.90;20.09;98980.41;5111946;28;20019;-78
2022/10/10 05:56:19;;;;;;;2.00;1.30;;;;;;;25.64;20.23;98978.38;5112418;28;20070;-79
2022/10/10 05:58:45;;;;;;;1.70;1.50;;;;;;;25.63;20.34;98988.84;5113419;28;20028;-79
2022/10/10 06:01:11;;;;;;;1.95;1.20;;;;;;;25.29;20.86;98982.44;5113280;28;20023;-79
2022/10/10 06:03:37;;;;;;;1.48;1.10;;;;;;;25.25;21.07;98974.03;5101979;28;20040;-79
2022/10/10 06:06:03;;;;;;;4.50;1.50;;;;;;;25.08;21.21;98986.31;5099104;28;20027;-79
2022/10/10 06:08:32;;;;;;;2.15;1.70;;;;;;;25.11;21.27;98984.66;5117499;28;20050;-79
2022/10/10 06:11:09;;;;;;;1.73;1.63;;;;;;;25.31;21.43;98992.03;5111686;28;20488;-79
2022/10/10 06:13:37;;;;;;;1.40;1.30;;;;;;;25.25;21.43;98985.28;5113431;28;20492;-79
2022/10/10 06:16:03;;;;;;;2.45;1.20;;;;;;;24.95;22.28;98990.84;5115647;28;20024;-79
2022/10/10 06:18:29;;;;;;;1.70;1.40;;;;;;;24.74;22.32;98991.84;5117052;28;20149;-79
2022/10/10 06:20:59;;;;;;;2.25;1.20;;;;;;;24.56;22.75;98984.81;5103389;28;20369;-79
2022/10/10 06:23:27;;;;;;;2.30;1.52;;;;;;;23.74;23.26;98984.63;5116336;28;20032;-79
2022/10/10 06:25:53;;;;;;;3.78;1.60;;;;;;;23.32;24.29;98982.81;5117302;28;20039;-79
2022/10/10 06:28:20;;;;;;;1.75;1.40;;;;;;;23.02;24.53;98982.53;5116186;28;20039;-79
2022/10/10 06:30:49;;;;;;;2.30;1.20;;;;;;;22.62;25.83;98981.03;5114759;28;20039;-79
2022/10/10 06:33:17;;;;;;;1.60;1.15;;;;;;;23.54;24.62;98989.16;5116267;28;20062;-79
2022/10/10 06:35:45;;;;;;;3.28;1.20;;;;;;;24.28;23.68;98985.88;5109944;28;20514;-79
2022/10/10 06:38:13;;;;;;;4.40;1.73;;;;;;;23.37;24.42;98984.44;5111971;28;20057;-79
2022/10/10 06:40:40;;;;;;;2.42;1.50;;;;;;;24.24;23.97;98985.13;5116681;28;20074;-79
2022/10/10 06:43:10;;;;;;;1.77;1.50;;;;;;;22.74;25.68;98981.81;5116350;28;20031;-79
2022/10/10 06:45:37;;;;;;;3.45;1.40;;;;;;;23.63;25.32;98981.09;5116789;27;20032;-79
2022/10/10 06:48:03;;;;;;;2.33;1.63;;;;;;;23.61;25.27;98980.72;5116352;28;20498;-79
2022/10/10 06:50:29;;;;;;;2.42;1.77;;;;;;;23.56;25.39;98977.53;5116451;28;20027;-79
2022/10/10 06:52:56;;;;;;;3.75;2.35;;;;;;;23.71;25.04;98977.03;5116486;28;20034;-79
2022/10/10 06:55:22;;;;;;;2.65;2.00;;;;;;;;;;5098839;28;20107;-79
2022/10/10 06:57:48;;;;;;;2.95;1.42;;;;;;;24.16;25.72;98971.53;5103464;28;20466;-79
2022/10/10 07:00:14;;;;;;;2.38;1.40;;;;;;;24.91;23.78;98973.25;5112678;28;20721;-79
2022/10/10 07:02:41;;;;;;;1.42;1.30;;;;;;;23.95;25.24;98973.28;5114753;28;20130;-79
2022/10/10 07:05:10;;;;;;;2.50;1.17;;;;;;;25.17;23.96;98971.75;5112732;28;20380;-79
2022/10/10 07:07:37;;;;;;;2.33;1.40;;;;;;;25.55;23.10;98969.69;5116350;28;20119;-79
2022/10/10 07:10:04;;;;;;;2.17;1.40;;;;;;;26.12;23.30;98970.44;5116370;28;20061;-79
2022/10/10 07:12:30;;;;;;;2.95;1.38;;;;;;;26.55;22.35;98971.31;5114850;28;20043;-79
2022/10/10 07:14:56;;;;;;;2.10;1.38;;;;;;;26.99;22.23;98964.47;5115908;28;20053;-79
2022/10/10 07:17:22;;;;;;;1.40;1.20;;;;;;;26.58;22.55;98964.03;5115841;28;20063;-79
2022/10/10 07:19:48;;;;;;;1.95;1.58;;;;;;;26.28;23.11;98973.38;5113222;28;20036;-79
2022/10/10 07:22:14;;;;;;;2.28;1.35;;;;;;;26.26;22.44;98970.22;5115717;28;20020;-79
2022/10/10 07:24:40;;;;;;;4.82;1.50;;;;;;;25.84;23.30;98962.41;5114907;28;20483;-79
2022/10/10 07:27:06;;;;;;;3.00;1.90;;;;;;;25.56;23.24;98962.81;5115132;28;20479;-79
2022/10/10 07:29:33;;;;;;;1.80;1.15;;;;;;;26.07;22.74;98962.44;5114921;28;20027;-79
2022/10/10 07:31:59;;;;;;;1.60;1.10;;;;;;;26.39;22.69;98954.31;5115304;28;20534;-80
2022/10/10 07:34:25;;;;;;;2.58;1.30;;;;;;;26.48;22.72;98960.19;5114850;28;20106;-79
2022/10/10 07:36:51;;;;;;;1.52;1.00;;;;;;;26.78;22.44;98962.06;5115227;28;20028;-80
2022/10/10 07:39:24;;;;;;;1.58;0.80;;;;;;;27.31;22.43;98953.34;5115650;28;20024;-79
2022/10/10 07:41:51;;;;;;;1.05;0.80;;;;;;;27.39;21.58;98952.00;5115549;28;20098;-79
2022/10/10 07:44:17;;;;;;;3.88;1.08;;;;;;;26.97;22.30;98958.47;5113563;28;20107;-80
2022/10/10 07:46:44;;;;;;;1.02;0.90;;;;;;;27.44;21.22;98959.16;5094806;28;20028;-79
2022/10/10 07:49:10;;;;;;;1.42;0.70;;;;;;;27.88;20.97;98950.06;5104990;28;20429;-79
2022/10/10 07:51:37;;;;;;;1.05;0.90;;;;;;;27.58;21.53;98950.38;5115071;28;20452;-79
2022/10/10 07:54:04;;;;;;;1.20;0.90;;;;;;;27.03;21.64;98945.47;5115014;28;20472;-79
2022/10/10 07:56:30;;;;;;;137.65;6.53;;;;;;;27.09;22.53;98946.56;5095615;28;20032;-79
2022/10/10 07:58:56;;;;;;;1.20;0.90;;;;;;;27.42;21.28;98941.88;5094739;28;20047;-79
2022/10/10 08:01:22;;;;;;;1.52;0.73;;;;;;;27.45;20.79;98943.78;5107466;28;20127;-80
2022/10/10 08:03:49;;;;;;;2.17;0.82;;;;;;;27.07;22.20;98945.41;5113753;28;20045;-80
2022/10/10 08:06:16;;;;;;;1.05;0.75;;;;;;;26.96;21.64;98948.44;5112498;28;20032;-80
2022/10/10 08:08:43;;;;;;;3.30;0.98;;;;;;;26.93;22.90;98956.97;5113463;28;20176;-80
2022/10/10 08:11:10;;;;;;;0.90;0.60;;;;;;;27.68;21.87;98946.50;5114605;28;20119;-80
2022/10/10 08:13:37;;;;;;;1.33;0.82;;;;;;;27.69;21.57;98942.44;5114826;28;20483;-80
2022/10/10 08:16:04;;;;;;;1.83;0.80;;;;;;;27.33;21.90;98944.44;5114628;28;20084;-80
2022/10/10 08:18:30;;;;;;;1.23;0.82;;;;;;;26.63;22.49;98953.06;5114047;28;20043;-80
2022/10/10 08:21:05;;;;;;;2.30;0.55;;;;;;;26.60;21.69;98951.13;5113656;28;20043;-79
2022/10/10 08:23:31;;;;;;;2.28;0.73;;;;;;;27.63;21.51;98937.78;5112658;28;20027;-79
2022/10/10 08:25:59;;;;;;;0.93;0.57;;;;;;;26.29;23.07;98941.19;5114454;28;20023;-80
2022/10/10 08:28:25;;;;;;;3.90;1.17;;;;;;;24.82;25.34;98933.63;5114490;28;20168;-80
2022/10/10 08:30:51;;;;;;;1.35;1.13;;;;;;;23.81;26.39;98936.09;5114818;28;20385;-80
2022/10/10 08:33:18;;;;;;;1.02;0.80;;;;;;;25.55;24.51;98931.09;5112311;28;20560;-80
2022/10/10 08:35:44;;;;;;;2.78;0.70;;;;;;;25.90;22.73;98930.56;5113346;28;20023;-80
2022/10/10 08:38:10;;;;;;;1.77;0.77;;;;;;;27.24;21.13;98919.66;5113782;28;20406;-79
2022/10/10 08:40:56;;;;;;;1.10;0.70;;;;;;;26.52;21.74;98920.66;5114157;28;20035;-80
2022/10/10 08:43:36;;;;;;;2.65;0.70;;;;;;;27.79;21.27;98912.41;5114239;28;20032;-79
2022/10/10 08:46:13;;;;;;;0.60;0.60;;;;;;;28.73;20.32;98902.72;5113232;28;20395;-79
2022/10/10 08:48:40;;;;;;;1.05;0.63;;;;;;;27.80;20.61;98905.50;5114116;28;20027;-79
2022/10/10 08:51:13;;;;;;;1.05;0.80;;;;;;;28.50;20.59;98900.91;5114187;28;20027;-79
2022/10/10 08:53:47;;;;;;;0.63;0.63;;;;;;;27.89;21.46;98900.84;5102292;28;20020;-80
2022/10/10 08:56:19;;;;;;;0.88;0.57;;;;;;;28.51;21.17;98902.50;5096724;28;20095;-80
2022/10/10 08:58:52;;;;;;;1.25;0.63;;;;;;;26.74;22.25;98905.78;5113861;28;20491;-80
2022/10/10 09:01:24;;;;;;;0.70;0.70;;;;;;;27.82;21.68;98895.38;5112956;28;20035;-80
2022/10/10 09:03:53;;;;;;;0.40;0.40;;;;;;;28.58;20.27;98885.34;5113841;28;20499;-79
2022/10/10 09:06:48;;;;;;;0.65;0.60;;;;;;;27.98;19.79;98886.91;5113838;28;20072;-79
2022/10/10 09:09:20;;;;;;;2.10;0.60;;;;;;;27.42;21.12;98882.63;5113581;28;20024;-80
2022/10/10 09:12:26;;;;;;;0.57;0.57;;;;;;;26.42;20.79;98887.88;5113854;28;20491;-80
2022/10/10 09:15:24;;;;;;;0.85;0.60;;;;;;;26.97;21.73;98884.41;5111945;28;20027;-80
2022/10/10 09:18:01;;;;;;;1.10;0.90;;;;;;;25.30;23.65;98891.25;5106295;28;20051;-80
2022/10/10 09:20:43;;;;;;;2.33;0.70;;;;;;;26.01;22.69;98880.53;5094556;28;20438;-80
2022/10/10 09:23:19;;;;;;;1.52;0.80;;;;;;;27.17;22.09;98871.88;5093196;28;20036;-79
2022/10/10 09:25:52;;;;;;;2.03;0.68;;;;;;;26.69;22.58;98869.66;5093548;28;20020;-80
2022/10/10 09:28:38;;;;;;;1.38;0.80;;;;;;;26.42;23.26;98868.94;5093872;28;20064;-80
2022/10/10 09:31:13;;;;;;;1.15;0.88;;;;;;;26.46;23.18;98866.88;5106815;28;20039;-80
2022/10/10 09:33:44;;;;;;;1.70;0.70;;;;;;;25.65;25.00;98867.50;5113324;28;20040;-80
2022/10/10 09:36:14;;;;;;;2.88;0.68;;;;;;;27.50;22.08;98861.47;5113278;28;20043;-80
2022/10/10 09:38:43;;;;;;;1.05;0.73;;;;;;;28.23;21.81;98860.09;5113519;28;20024;-80
2022/10/10 09:41:33;;;;;;;0.85;0.85;;;;;;;26.02;23.34;98864.44;5113753;28;20463;-80
2022/10/10 09:44:08;;;;;;;0.52;0.52;;;;;;;27.89;23.68;98850.03;5112563;28;20478;-80
2022/10/10 09:46:35;;;;;;;1.27;0.75;;;;;;;28.59;21.55;98853.06;5113254;28;20040;-79
2022/10/10 09:49:01;;;;;;;1.60;0.90;;;;;;;29.34;21.04;98854.50;5115042;28;20085;-79
2022/10/10 09:51:29;;;;;;;1.38;0.80;;;;;;;29.68;20.62;98853.81;5117338;28;20055;-79
2022/10/10 09:53:55;;;;;;;0.77;0.77;;;;;;;29.74;19.85;98846.34;5117609;28;20028;-80
2022/10/10 09:56:29;;;;;;;7.90;1.27;;;;;;;26.93;22.27;98855.50;5117425;28;20027;-80
2022/10/10 09:58:56;;;;;;;1.10;0.80;;;;;;;27.99;21.93;98854.66;5114792;28;20024;-80
2022/10/10 10:01:26;;;;;;;2.95;1.05;;;;;;;26.57;25.04;98853.38;5108221;28;20036;-80
2022/10/10 10:04:16;;;;;;;1.20;0.90;;;;;;;28.14;21.65;98849.44;5101713;28;20475;-80
2022/10/10 10:06:51;;;;;;;1.35;0.80;;;;;;;29.02;22.71;98843.34;5117072;28;20024;-80
2022/10/10 10:09:20;;;;;;;3.08;1.30;;;;;;;25.65;27.10;98850.59;5117416;28;20053;-80
2022/10/10 10:11:53;;;;;;;2.33;1.20;;;;;;;27.91;22.89;98841.91;5117164;28;20028;-80
2022/10/10 10:14:34;;;;;;;1.25;0.93;;;;;;;30.05;20.28;98838.84;5115990;28;20028;-80
2022/10/10 10:17:09;;;;;;;0.90;0.90;;;;;;;30.82;20.57;98838.13;5116924;28;20124;-80
2022/10/10 10:19:44;;;;;;;2.17;1.10;;;;;;;30.05;19.85;98830.34;5103974;28;20025;-80
2022/10/10 10:22:34;;;;;;;1.25;1.15;;;;;;;30.55;20.51;98832.25;5107193;28;20465;-80
2022/10/10 10:25:27;;;;;;;1.13;1.02;;;;;;;29.28;21.47;98830.84;5116828;28;20076;-80
2022/10/10 10:28:14;;;;;;;1.30;1.10;;;;;;;27.31;22.93;98817.97;5116801;28;20027;-80
2022/10/10 10:30:42;;;;;;;1.15;0.90;;;;;;;29.50;21.69;98828.13;5115676;28;20031;-80
2022/10/10 10:33:31;;;;;;;1.20;1.10;;;;;;;30.31;19.89;98816.91;5100145;28;20048;-80
2022/10/10 10:36:12;;;;;;;1.08;0.98;;;;;;;30.04;21.18;98821.06;5096993;28;20047;-80
2022/10/10 10:38:54;;;;;;;1.92;1.15;;;;;;;31.07;20.59;98818.13;5102486;28;20156;-80
2022/10/10 10:41:29;;;;;;;1.38;1.25;;;;;;;30.42;20.27;98811.66;5116977;28;20137;-80
2022/10/10 10:44:10;;;;;;;1.10;1.00;;;;;;;30.70;20.19;98802.09;5115349;28;20024;-80
2022/10/10 10:46:54;;;;;;;2.20;1.30;;;;;;;30.36;20.27;98802.19;5116369;28;20028;-80
2022/10/10 10:49:27;;;;;;;2.38;1.50;;;;;;;28.52;23.47;98791.06;5116288;28;20043;-80
2022/10/10 10:52:23;;;;;;;2.65;1.60;;;;;;;26.75;23.45;98791.06;5110643;28;20081;-80
2022/10/10 10:55:10;;;;;;;2.70;1.40;;;;;;;27.66;24.58;98790.16;5096243;28;20380;-80
2022/10/10 10:57:58;;;;;;;1.98;1.30;;;;;;;28.92;23.06;98776.59;5096066;28;20108;-80
2022/10/10 11:00:24;;;;;;;2.50;1.42;;;;;;;28.38;24.02;98776.56;5096117;28;20039;-80
2022/10/10 11:03:23;;;;;;;1.75;1.13;;;;;;;29.22;22.89;98781.75;5107218;28;20070;-80
2022/10/10 11:06:33;;;;;;;1.58;1.20;;;;;;;30.42;19.07;98772.78;5095542;28;20032;-80
2022/10/10 11:09:41;;;;;;;1.10;1.00;;;;;;;31.39;19.11;98768.63;5099192;28;20044;-80
2022/10/10 11:12:16;;;;;;;1.80;1.33;;;;;;;28.01;24.38;98766.69;5086538;28;20098;-80
2022/10/10 11:15:00;;;;;;;1.38;1.27;;;;;;;28.99;23.40;98763.03;5113918;28;20169;-80
2022/10/10 11:17:37;;;;;;;2.00;1.13;;;;;;;30.62;20.82;98761.13;5107813;28;20062;-81
2022/10/10 11:20:11;;;;;;;4.00;1.38;;;;;;;29.04;21.01;98761.66;5101395;28;20032;-82
2022/10/10 11:22:50;;;;;;;1.73;1.20;;;;;;;29.50;22.47;98751.75;5095886;28;20028;-80
2022/10/10 11:25:28;;;;;;;2.13;1.38;;;;;;;29.67;22.34;98753.94;5107799;28;20027;-79
2022/10/10 11:28:07;;;;;;;3.30;1.20;;;;;;;28.77;22.26;98752.84;5095383;28;20016;-79
2022/10/10 11:30:43;;;;;;;1.25;0.90;;;;;;;30.22;22.25;98741.13;5097262;28;20070;-79
2022/10/10 11:33:15;;;;;;;1.42;1.10;;;;;;;30.58;20.18;98744.22;5110293;28;20040;-79
2022/10/10 11:36:16;;;;;;;1.05;0.93;;;;;;;31.19;20.29;98737.78;5115312;27;20040;-80
2022/10/10 11:39:19;;;;;;;2.08;1.27;;;;;;;29.32;20.85;98738.97;5097976;28;20475;-80
2022/10/10 11:42:21;;;;;;;1.13;1.02;;;;;;;30.88;22.19;98728.50;5115355;28;20035;-79
2022/10/10 11:44:55;;;;;;;1.30;1.00;;;;;;;31.95;19.64;98725.69;5112748;28;20032;-79
2022/10/10 11:47:47;;;;;;;1.38;1.17;;;;;;;31.11;19.18;98715.88;5103016;28;20063;-79
2022/10/10 11:50:23;;;;;;;1.70;1.27;;;;;;;29.53;21.77;98722.50;5095688;28;20036;-79
2022/10/10 11:53:11;;;;;;;2.13;1.20;;;;;;;29.88;22.47;98712.81;5103372;28;20028;-79
2022/10/10 11:55:46;;;;;;;6.57;1.05;;;;;;;30.20;23.69;98708.84;5133311;27;20024;-81